createdAt,value
2024-01-24T00:01:04.615Z,100.00
2024-01-24T00:05:07.383Z,100.00
2024-01-24T00:09:09.087Z,100.00
2024-01-24T00:13:11.995Z,100.00
2024-01-24T00:17:13.694Z,100.00
2024-01-24T00:21:15.648Z,100.00
2024-01-24T00:25:17.500Z,100.00
2024-01-24T00:29:20.462Z,100.00
2024-01-24T00:33:23.131Z,100.00
2024-01-24T00:37:24.879Z,100.00
2024-01-24T00:41:26.366Z,100.00
2024-01-24T00:45:29.272Z,100.00
2024-01-24T00:49:32.334Z,100.00
2024-01-24T00:53:34.915Z,100.00
2024-01-24T00:57:37.004Z,100.00
2024-01-24T01:01:39.949Z,100.00
2024-01-24T01:05:44.533Z,100.00
2024-01-24T01:09:46.169Z,100.00
2024-01-24T01:13:49.150Z,100.00
2024-01-24T01:17:52.030Z,100.00
2024-01-24T01:21:53.681Z,100.00
2024-01-24T01:25:55.234Z,100.00
2024-01-24T01:29:56.759Z,100.00
2024-01-24T01:33:59.727Z,100.00
2024-01-24T01:38:01.371Z,100.00
2024-01-24T01:42:04.057Z,100.00
2024-01-24T01:46:07.749Z,100.00
2024-01-24T01:50:14.268Z,100.00
2024-01-24T01:54:17.022Z,100.00
2024-01-24T01:58:18.735Z,100.00
2024-01-24T02:02:20.682Z,100.00
2024-01-24T02:06:23.891Z,100.00
2024-01-24T02:10:25.482Z,100.00
2024-01-24T02:14:28.062Z,100.00
2024-01-24T02:18:29.573Z,100.00
2024-01-24T02:22:32.596Z,100.00
2024-01-24T02:26:35.972Z,100.00
2024-01-24T02:30:37.532Z,100.00
2024-01-24T02:34:39.281Z,100.00
2024-01-24T02:38:40.955Z,100.00
2024-01-24T02:42:43.872Z,100.00
2024-01-24T02:46:45.470Z,100.00
2024-01-24T02:50:47.035Z,100.00
2024-01-24T02:54:48.656Z,100.00
2024-01-24T02:58:51.653Z,100.00
2024-01-24T03:02:53.194Z,100.00
2024-01-24T03:06:54.850Z,100.00
2024-01-24T03:10:56.452Z,100.00
2024-01-24T03:14:59.385Z,100.00
2024-01-24T03:19:01.070Z,100.00
2024-01-24T03:23:05.456Z,100.00
2024-01-24T03:27:07.357Z,100.00
2024-01-24T03:31:10.373Z,100.00
2024-01-24T03:35:11.988Z,100.00
2024-01-24T03:39:13.559Z,100.00
2024-01-24T03:43:15.110Z,100.00
2024-01-24T03:47:18.062Z,100.00
2024-01-24T03:51:19.700Z,100.00
2024-01-24T03:55:21.518Z,100.00
2024-01-24T03:59:23.092Z,100.00
2024-01-24T04:03:26.096Z,100.00
2024-01-24T04:07:30.578Z,100.00
2024-01-24T04:11:34.334Z,100.00
2024-01-24T04:15:35.984Z,100.00
2024-01-24T04:19:40.286Z,100.00
2024-01-24T04:23:42.019Z,100.00
2024-01-24T04:27:43.659Z,100.00
2024-01-24T04:31:45.234Z,100.00
2024-01-24T04:35:48.136Z,100.00
2024-01-24T04:39:49.656Z,100.00
2024-01-24T04:43:51.220Z,100.00
2024-01-24T04:47:52.952Z,100.00
2024-01-24T04:51:55.939Z,100.00
2024-01-24T04:55:57.486Z,100.00
2024-01-24T05:00:00.165Z,100.00
2024-01-24T05:04:02.427Z,100.00
2024-01-24T05:08:05.819Z,100.00
2024-01-24T05:12:07.492Z,100.00
2024-01-24T05:16:09.102Z,100.00
2024-01-24T05:20:11.923Z,100.00
2024-01-24T05:24:14.963Z,100.00
2024-01-24T05:28:16.629Z,100.00
2024-01-24T05:32:18.199Z,100.00
2024-01-24T05:36:19.763Z,100.00
2024-01-24T05:40:25.234Z,100.00
2024-01-24T05:44:27.399Z,100.00
2024-01-24T05:48:29.232Z,100.00
2024-01-24T05:52:30.840Z,100.00
2024-01-24T05:56:33.891Z,100.00
2024-01-24T06:00:35.571Z,100.00
2024-01-24T06:04:37.343Z,100.00
2024-01-24T06:08:39.021Z,100.00
2024-01-24T06:12:42.017Z,100.00
2024-01-24T06:16:43.550Z,100.00
2024-01-24T06:20:45.453Z,100.00
2024-01-24T06:24:48.044Z,100.00
2024-01-24T06:28:51.170Z,100.00
2024-01-24T06:32:53.189Z,100.00
2024-01-24T06:36:55.135Z,100.00
2024-01-24T06:40:56.906Z,100.00
2024-01-24T06:44:59.797Z,100.00
2024-01-24T06:49:01.445Z,100.00
2024-01-24T06:53:03.085Z,100.00
2024-01-24T06:57:05.206Z,100.00
2024-01-24T07:01:08.277Z,100.00
2024-01-24T07:05:09.960Z,100.00
2024-01-24T07:09:11.534Z,100.00
2024-01-24T07:13:14.398Z,100.00
2024-01-24T07:17:17.508Z,100.00
2024-01-24T07:21:19.179Z,100.00
2024-01-24T07:25:20.978Z,100.00
2024-01-24T07:29:25.670Z,100.00
2024-01-24T07:33:28.892Z,100.00
2024-01-24T07:37:30.536Z,100.00
2024-01-24T07:41:34.262Z,100.00
2024-01-24T07:45:35.871Z,100.00
2024-01-24T07:49:39.592Z,100.00
2024-01-24T07:53:41.323Z,100.00
2024-01-24T07:57:43.008Z,100.00
2024-01-24T08:01:45.307Z,100.00
2024-01-24T08:05:48.353Z,100.00
2024-01-24T08:09:51.201Z,100.00
2024-01-24T08:13:52.820Z,100.00
2024-01-24T08:17:55.025Z,100.00
2024-01-24T08:21:58.199Z,100.00
2024-01-24T08:25:59.898Z,100.00
2024-01-24T08:30:01.624Z,100.00
2024-01-24T08:34:03.368Z,100.00
2024-01-24T08:38:06.393Z,100.00
2024-01-24T08:42:08.137Z,100.00
2024-01-24T08:46:09.816Z,100.00
2024-01-24T08:50:11.933Z,100.00
2024-01-24T08:54:15.031Z,100.00
2024-01-24T08:58:16.589Z,100.00
2024-01-24T09:02:18.226Z,100.00
2024-01-24T09:06:19.889Z,100.00
2024-01-24T09:10:22.954Z,100.00
2024-01-24T09:14:24.889Z,100.00
2024-01-24T09:18:27.359Z,100.00
2024-01-24T09:22:29.062Z,100.00
2024-01-24T09:26:32.189Z,100.00
2024-01-24T09:30:33.741Z,100.00
2024-01-24T09:34:35.505Z,100.00
2024-01-24T09:38:37.448Z,100.00
2024-01-24T09:42:42.533Z,100.00
2024-01-24T09:46:44.192Z,100.00
2024-01-24T09:50:46.758Z,100.00
2024-01-24T09:54:48.428Z,100.00
2024-01-24T09:58:51.284Z,100.00
2024-01-24T10:02:53.018Z,100.00
2024-01-24T10:06:54.911Z,97.96
2024-01-24T10:10:56.665Z,98.95
2024-01-24T10:14:59.674Z,96.17
2024-01-24T10:19:01.360Z,92.62
2024-01-24T10:23:03.217Z,89.82
2024-01-24T10:27:05.554Z,89.78
2024-01-24T10:31:10.018Z,91.03
2024-01-24T10:35:12.040Z,100.00
2024-01-24T10:39:17.550Z,100.00
2024-01-24T10:43:21.337Z,100.00
2024-01-24T10:47:25.301Z,100.00
2024-01-24T10:51:28.730Z,100.00
2024-01-24T10:55:32.504Z,100.00
2024-01-24T10:59:36.523Z,100.00
2024-01-24T11:03:40.367Z,100.00
2024-01-24T11:07:48.979Z,100.00
2024-01-24T11:11:54.411Z,100.00
2024-01-24T11:15:56.827Z,100.00
2024-01-24T11:20:00.011Z,100.00
2024-01-24T11:24:01.646Z,99.11
2024-01-24T11:28:03.459Z,95.95
2024-01-24T11:32:10.388Z,96.26
2024-01-24T11:40:27.004Z,95.68
2024-01-24T11:44:29.850Z,95.17
2024-01-24T11:48:34.272Z,94.65
2024-01-24T11:52:36.457Z,96.54
2024-01-24T11:56:39.770Z,96.29
2024-01-24T12:00:41.930Z,96.98
2024-01-24T12:04:44.046Z,95.89
2024-01-24T12:08:48.219Z,93.43
2024-01-24T12:12:54.540Z,94.26
2024-01-24T12:16:56.576Z,95.62
2024-01-24T12:21:03.362Z,95.95
2024-01-24T12:25:07.557Z,95.95
2024-01-24T12:29:11.592Z,93.33
2024-01-24T12:33:16.116Z,90.04
2024-01-24T12:37:20.918Z,90.36
2024-01-24T12:41:23.686Z,88.74
2024-01-24T12:45:28.303Z,89.18
2024-01-24T12:49:30.870Z,91.29
2024-01-24T12:53:33.320Z,92.84
2024-01-24T12:57:36.654Z,93.19
2024-01-24T13:01:40.777Z,92.01
2024-01-24T13:05:47.171Z,89.47
2024-01-24T13:09:56.018Z,86.77
2024-01-24T13:14:00.449Z,85.47
2024-01-24T13:18:04.482Z,81.32
2024-01-24T13:22:06.539Z,78.03
2024-01-24T13:26:08.853Z,76.85
2024-01-24T13:30:11.758Z,75.19
2024-01-24T13:34:15.638Z,72.55
2024-01-24T13:38:17.744Z,72.56
2024-01-24T13:42:19.549Z,75.04
2024-01-24T13:46:21.636Z,75.39
2024-01-24T13:50:25.221Z,78.36
2024-01-24T13:54:27.435Z,79.26
2024-01-24T13:58:29.703Z,81.49
2024-01-24T14:02:31.822Z,84.47
2024-01-24T14:06:35.400Z,90.19
2024-01-24T14:10:37.941Z,90.21
2024-01-24T14:14:40.007Z,86.64
2024-01-24T14:18:44.899Z,85.95
2024-01-24T14:22:48.158Z,84.44
2024-01-24T14:26:50.197Z,86.15
2024-01-24T14:30:52.292Z,86.50
2024-01-24T14:34:54.431Z,86.82
2024-01-24T14:38:58.019Z,83.34
2024-01-24T14:43:00.401Z,83.34
2024-01-24T14:47:02.056Z,83.39
2024-01-24T14:51:04.091Z,85.35
2024-01-24T14:55:08.244Z,82.53
2024-01-24T14:59:09.930Z,82.49
2024-01-24T15:03:11.654Z,81.64
2024-01-24T15:07:13.489Z,81.21
2024-01-24T15:11:16.621Z,83.65
2024-01-24T15:15:18.561Z,82.68
2024-01-24T15:19:20.594Z,83.48
2024-01-24T15:23:22.349Z,86.12
2024-01-24T15:27:25.927Z,88.65
2024-01-24T15:31:27.780Z,90.86
2024-01-24T15:35:29.381Z,89.71
2024-01-24T15:39:31.407Z,88.79
2024-01-24T15:43:34.453Z,87.45
2024-01-24T15:47:36.307Z,87.17
2024-01-24T15:51:38.020Z,88.00
2024-01-24T15:55:39.814Z,86.85
2024-01-24T15:59:43.003Z,87.01
2024-01-24T16:03:45.213Z,87.32
2024-01-24T16:07:47.078Z,85.60
2024-01-24T16:11:48.672Z,86.25
2024-01-24T16:15:52.398Z,87.04
2024-01-24T16:19:54.065Z,87.89
2024-01-24T16:23:55.707Z,85.23
2024-01-24T16:27:57.541Z,82.24
2024-01-24T16:32:00.500Z,81.71
2024-01-24T16:36:02.642Z,80.04
2024-01-24T16:40:04.826Z,80.30
2024-01-24T16:44:06.510Z,80.42
2024-01-24T16:48:09.685Z,78.20
2024-01-24T16:52:11.394Z,78.23
2024-01-24T16:56:13.033Z,78.51
2024-01-24T17:00:15.205Z,78.37
2024-01-24T17:04:18.304Z,77.57
2024-01-24T17:08:19.899Z,77.39
2024-01-24T17:12:21.460Z,77.96
2024-01-24T17:16:23.058Z,78.34
2024-01-24T17:20:26.031Z,77.21
2024-01-24T17:24:27.776Z,76.20
2024-01-24T17:28:29.380Z,77.44
2024-01-24T17:32:31.154Z,77.23
2024-01-24T17:36:34.397Z,78.29
2024-01-24T17:40:35.991Z,78.57
2024-01-24T17:44:38.090Z,78.74
2024-01-24T17:48:40.118Z,79.04
2024-01-24T17:52:43.862Z,78.83
2024-01-24T17:56:46.148Z,79.93
2024-01-24T18:00:48.261Z,80.52
2024-01-24T18:04:50.292Z,81.71
2024-01-24T18:08:54.153Z,86.88
2024-01-24T18:12:56.722Z,93.74
2024-01-24T18:16:58.821Z,93.11
2024-01-24T18:21:00.930Z,97.75
2024-01-24T18:25:04.971Z,100.00
2024-01-24T18:29:06.840Z,100.00
2024-01-24T18:33:08.987Z,100.00
2024-01-24T18:37:11.200Z,98.71
2024-01-24T18:41:16.423Z,96.40
2024-01-24T18:45:18.722Z,95.76
2024-01-24T18:49:20.867Z,94.35
2024-01-24T18:53:23.041Z,91.64
2024-01-24T18:57:26.677Z,92.84
2024-01-24T19:01:29.105Z,95.31
2024-01-24T19:05:37.255Z,95.77
2024-01-24T19:09:41.713Z,95.42
2024-01-24T19:13:45.562Z,92.20
2024-01-24T19:17:47.754Z,92.62
2024-01-24T19:21:49.933Z,91.03
2024-01-24T19:25:52.944Z,90.81
2024-01-24T19:29:56.370Z,91.17
2024-01-24T19:33:58.427Z,90.30
2024-01-24T19:38:00.892Z,90.68
2024-01-24T19:42:03.079Z,90.29
2024-01-24T19:46:07.159Z,89.93
2024-01-24T19:50:09.996Z,91.18
2024-01-24T19:54:11.899Z,90.99
2024-01-24T19:58:14.029Z,91.33
2024-01-24T20:02:17.312Z,90.49
2024-01-24T20:06:19.360Z,90.54
2024-01-24T20:10:21.556Z,91.63
2024-01-24T20:14:23.307Z,92.46
2024-01-24T20:18:26.861Z,93.34
2024-01-24T20:22:28.861Z,94.75
2024-01-24T20:26:30.897Z,100.00
2024-01-24T20:30:33.237Z,100.00
2024-01-24T20:34:36.526Z,100.00
2024-01-24T20:38:38.571Z,100.00
2024-01-24T20:42:40.105Z,100.00
2024-01-24T20:46:41.802Z,100.00
2024-01-24T20:50:45.760Z,100.00
2024-01-24T20:54:47.332Z,100.00
2024-01-24T20:58:48.954Z,100.00
2024-01-24T21:02:50.458Z,100.00
2024-01-24T21:06:53.446Z,100.00
2024-01-24T21:10:59.991Z,100.00
2024-01-24T21:15:05.639Z,100.00
2024-01-24T21:19:07.190Z,100.00
2024-01-24T21:23:10.137Z,100.00
2024-01-24T21:27:11.776Z,100.00
2024-01-24T21:31:13.382Z,100.00
2024-01-24T21:35:14.909Z,100.00
2024-01-24T21:39:17.776Z,100.00
2024-01-24T21:43:19.302Z,100.00
2024-01-24T21:47:20.820Z,100.00
2024-01-24T21:51:22.362Z,100.00
2024-01-24T21:55:25.205Z,100.00
2024-01-24T21:59:26.712Z,100.00
2024-01-24T22:03:28.296Z,100.00
2024-01-24T22:07:29.907Z,100.00
2024-01-24T22:11:35.404Z,100.00
2024-01-24T22:15:37.328Z,100.00
2024-01-24T22:19:39.488Z,100.00
2024-01-24T22:23:41.392Z,100.00
2024-01-24T22:27:44.747Z,100.00
2024-01-24T22:31:47.484Z,100.00
2024-01-24T22:35:49.752Z,100.00
2024-01-24T22:39:53.155Z,100.00
2024-01-24T22:43:56.616Z,100.00
2024-01-24T22:47:58.679Z,100.00
2024-01-24T22:52:00.675Z,100.00
2024-01-24T22:56:02.784Z,100.00
2024-01-24T23:00:07.952Z,100.00
2024-01-24T23:04:09.900Z,100.00
2024-01-24T23:08:12.031Z,100.00
2024-01-24T23:12:14.109Z,100.00
2024-01-24T23:16:17.826Z,100.00
2024-01-24T23:20:20.029Z,100.00
2024-01-24T23:24:21.962Z,100.00
2024-01-24T23:28:24.373Z,100.00
2024-01-24T23:32:28.388Z,100.00
2024-01-24T23:36:30.561Z,100.00
2024-01-24T23:40:32.610Z,100.00
2024-01-24T23:44:34.656Z,100.00
2024-01-24T23:48:38.299Z,100.00
2024-01-24T23:52:41.078Z,100.00
2024-01-24T23:56:43.047Z,100.00
